sensor_id;sensor_type;location;lat;lon;timestamp;P1;durP1;ratioP1;P2;durP2;ratioP2
24713;SDS011;12820;51.580;5.010;2022-07-31T00:03:08;6.80;;;2.55;;
24713;SDS011;12820;51.580;5.010;2022-07-31T00:08:10;5.38;;;2.28;;
24713;SDS011;12820;51.580;5.010;2022-07-31T00:13:12;4.85;;;2.35;;
24713;SDS011;12820;51.580;5.010;2022-07-31T00:18:14;6.72;;;2.20;;
24713;SDS011;12820;51.580;5.010;2022-07-31T00:23:16;6.10;;;2.40;;
24713;SDS011;12820;51.580;5.010;2022-07-31T00:28:19;6.13;;;2.65;;
24713;SDS011;12820;51.580;5.010;2022-07-31T00:33:22;6.50;;;2.58;;
24713;SDS011;12820;51.580;5.010;2022-07-31T00:38:24;8.55;;;3.30;;
24713;SDS011;12820;51.580;5.010;2022-07-31T00:43:28;7.28;;;3.08;;
24713;SDS011;12820;51.580;5.010;2022-07-31T00:48:32;9.15;;;2.90;;
24713;SDS011;12820;51.580;5.010;2022-07-31T00:53:35;5.88;;;2.80;;
24713;SDS011;12820;51.580;5.010;2022-07-31T00:58:37;7.90;;;3.00;;
24713;SDS011;12820;51.580;5.010;2022-07-31T01:03:39;7.63;;;3.00;;
24713;SDS011;12820;51.580;5.010;2022-07-31T01:08:41;7.18;;;2.97;;
24713;SDS011;12820;51.580;5.010;2022-07-31T01:13:48;5.97;;;2.90;;
24713;SDS011;12820;51.580;5.010;2022-07-31T01:18:55;4.90;;;2.65;;
24713;SDS011;12820;51.580;5.010;2022-07-31T01:24:14;7.93;;;3.47;;
24713;SDS011;12820;51.580;5.010;2022-07-31T01:29:41;5.90;;;3.03;;
24713;SDS011;12820;51.580;5.010;2022-07-31T01:34:51;7.88;;;3.33;;
24713;SDS011;12820;51.580;5.010;2022-07-31T01:40:07;7.22;;;2.75;;
24713;SDS011;12820;51.580;5.010;2022-07-31T01:45:12;7.32;;;2.67;;
24713;SDS011;12820;51.580;5.010;2022-07-31T01:50:16;8.13;;;3.72;;
24713;SDS011;12820;51.580;5.010;2022-07-31T01:55:40;8.57;;;3.60;;
24713;SDS011;12820;51.580;5.010;2022-07-31T02:01:05;4.68;;;2.85;;
24713;SDS011;12820;51.580;5.010;2022-07-31T02:06:12;6.80;;;3.88;;
24713;SDS011;12820;51.580;5.010;2022-07-31T02:11:17;10.77;;;4.00;;
24713;SDS011;12820;51.580;5.010;2022-07-31T02:16:20;7.88;;;3.90;;
24713;SDS011;12820;51.580;5.010;2022-07-31T02:21:31;7.38;;;3.97;;
24713;SDS011;12820;51.580;5.010;2022-07-31T02:26:33;10.10;;;4.70;;
24713;SDS011;12820;51.580;5.010;2022-07-31T02:31:37;9.63;;;5.32;;
24713;SDS011;12820;51.580;5.010;2022-07-31T02:36:40;9.35;;;5.30;;
24713;SDS011;12820;51.580;5.010;2022-07-31T02:41:43;10.35;;;5.53;;
24713;SDS011;12820;51.580;5.010;2022-07-31T02:46:45;10.02;;;4.90;;
24713;SDS011;12820;51.580;5.010;2022-07-31T02:51:49;12.95;;;5.65;;
24713;SDS011;12820;51.580;5.010;2022-07-31T02:56:52;12.40;;;5.38;;
24713;SDS011;12820;51.580;5.010;2022-07-31T03:01:55;9.77;;;5.47;;
24713;SDS011;12820;51.580;5.010;2022-07-31T03:06:58;12.27;;;6.28;;
24713;SDS011;12820;51.580;5.010;2022-07-31T03:12:01;12.38;;;6.72;;
24713;SDS011;12820;51.580;5.010;2022-07-31T03:17:05;10.68;;;6.55;;
24713;SDS011;12820;51.580;5.010;2022-07-31T03:22:09;12.70;;;7.60;;
24713;SDS011;12820;51.580;5.010;2022-07-31T03:27:16;10.38;;;7.38;;
24713;SDS011;12820;51.580;5.010;2022-07-31T03:32:18;13.32;;;8.25;;
24713;SDS011;12820;51.580;5.010;2022-07-31T03:37:20;12.25;;;8.38;;
24713;SDS011;12820;51.580;5.010;2022-07-31T03:42:22;12.93;;;8.90;;
24713;SDS011;12820;51.580;5.010;2022-07-31T03:47:25;18.67;;;8.70;;
24713;SDS011;12820;51.580;5.010;2022-07-31T03:52:28;15.30;;;9.25;;
24713;SDS011;12820;51.580;5.010;2022-07-31T03:57:30;15.50;;;10.45;;
24713;SDS011;12820;51.580;5.010;2022-07-31T04:02:35;15.73;;;9.68;;
24713;SDS011;12820;51.580;5.010;2022-07-31T04:07:43;18.30;;;10.73;;
24713;SDS011;12820;51.580;5.010;2022-07-31T04:12:45;15.90;;;9.30;;
24713;SDS011;12820;51.580;5.010;2022-07-31T04:17:49;13.35;;;9.18;;
24713;SDS011;12820;51.580;5.010;2022-07-31T04:22:57;14.57;;;9.60;;
24713;SDS011;12820;51.580;5.010;2022-07-31T04:28:25;14.82;;;9.13;;
24713;SDS011;12820;51.580;5.010;2022-07-31T04:33:27;17.17;;;9.63;;
24713;SDS011;12820;51.580;5.010;2022-07-31T04:38:29;14.80;;;9.43;;
24713;SDS011;12820;51.580;5.010;2022-07-31T04:43:31;13.57;;;8.25;;
24713;SDS011;12820;51.580;5.010;2022-07-31T04:48:33;13.48;;;7.88;;
24713;SDS011;12820;51.580;5.010;2022-07-31T04:53:42;10.50;;;7.35;;
24713;SDS011;12820;51.580;5.010;2022-07-31T04:58:44;13.07;;;7.45;;
24713;SDS011;12820;51.580;5.010;2022-07-31T05:03:46;9.18;;;6.32;;
24713;SDS011;12820;51.580;5.010;2022-07-31T05:08:49;12.50;;;6.28;;
24713;SDS011;12820;51.580;5.010;2022-07-31T05:13:52;9.48;;;5.43;;
24713;SDS011;12820;51.580;5.010;2022-07-31T05:18:56;10.52;;;5.10;;
24713;SDS011;12820;51.580;5.010;2022-07-31T05:24:17;9.03;;;4.80;;
24713;SDS011;12820;51.580;5.010;2022-07-31T05:29:45;11.15;;;4.88;;
24713;SDS011;12820;51.580;5.010;2022-07-31T05:34:47;8.05;;;4.18;;
24713;SDS011;12820;51.580;5.010;2022-07-31T05:39:49;6.95;;;4.00;;
24713;SDS011;12820;51.580;5.010;2022-07-31T05:45:09;7.47;;;3.60;;
24713;SDS011;12820;51.580;5.010;2022-07-31T05:50:12;6.07;;;3.80;;
24713;SDS011;12820;51.580;5.010;2022-07-31T05:55:15;6.65;;;3.35;;
24713;SDS011;12820;51.580;5.010;2022-07-31T06:00:29;7.35;;;4.03;;
24713;SDS011;12820;51.580;5.010;2022-07-31T06:05:33;7.05;;;3.50;;
24713;SDS011;12820;51.580;5.010;2022-07-31T06:10:35;7.55;;;3.60;;
24713;SDS011;12820;51.580;5.010;2022-07-31T06:15:38;7.13;;;3.67;;
24713;SDS011;12820;51.580;5.010;2022-07-31T06:20:46;5.53;;;2.80;;
24713;SDS011;12820;51.580;5.010;2022-07-31T06:25:49;6.35;;;3.40;;
24713;SDS011;12820;51.580;5.010;2022-07-31T06:30:51;7.53;;;3.67;;
24713;SDS011;12820;51.580;5.010;2022-07-31T06:35:53;7.25;;;3.67;;
24713;SDS011;12820;51.580;5.010;2022-07-31T06:41:13;9.00;;;3.95;;
24713;SDS011;12820;51.580;5.010;2022-07-31T06:46:53;8.68;;;3.85;;
24713;SDS011;12820;51.580;5.010;2022-07-31T06:52:17;7.88;;;4.18;;
24713;SDS011;12820;51.580;5.010;2022-07-31T06:57:19;10.68;;;4.40;;
24713;SDS011;12820;51.580;5.010;2022-07-31T07:02:21;15.60;;;6.18;;
24713;SDS011;12820;51.580;5.010;2022-07-31T07:07:24;13.68;;;7.03;;
24713;SDS011;12820;51.580;5.010;2022-07-31T07:12:34;17.58;;;8.00;;
24713;SDS011;12820;51.580;5.010;2022-07-31T07:17:36;16.35;;;8.90;;
24713;SDS011;12820;51.580;5.010;2022-07-31T07:22:45;18.40;;;9.18;;
24713;SDS011;12820;51.580;5.010;2022-07-31T07:27:57;19.95;;;10.00;;
24713;SDS011;12820;51.580;5.010;2022-07-31T07:33:00;25.52;;;10.50;;
24713;SDS011;12820;51.580;5.010;2022-07-31T07:38:03;18.70;;;9.98;;
24713;SDS011;12820;51.580;5.010;2022-07-31T07:43:06;15.80;;;9.55;;
24713;SDS011;12820;51.580;5.010;2022-07-31T07:48:09;21.52;;;12.00;;
24713;SDS011;12820;51.580;5.010;2022-07-31T07:53:31;22.25;;;10.98;;
24713;SDS011;12820;51.580;5.010;2022-07-31T07:58:52;21.90;;;11.60;;
24713;SDS011;12820;51.580;5.010;2022-07-31T08:04:12;22.20;;;11.57;;
24713;SDS011;12820;51.580;5.010;2022-07-31T08:09:15;21.92;;;11.15;;
24713;SDS011;12820;51.580;5.010;2022-07-31T08:14:52;16.35;;;10.55;;
24713;SDS011;12820;51.580;5.010;2022-07-31T08:20:13;15.73;;;9.47;;
24713;SDS011;12820;51.580;5.010;2022-07-31T08:25:15;18.52;;;10.60;;
24713;SDS011;12820;51.580;5.010;2022-07-31T08:30:19;21.98;;;11.25;;
24713;SDS011;12820;51.580;5.010;2022-07-31T08:35:22;18.80;;;10.75;;
24713;SDS011;12820;51.580;5.010;2022-07-31T08:40:24;20.02;;;11.38;;
24713;SDS011;12820;51.580;5.010;2022-07-31T08:45:32;18.63;;;11.07;;
24713;SDS011;12820;51.580;5.010;2022-07-31T08:50:53;15.27;;;11.07;;
24713;SDS011;12820;51.580;5.010;2022-07-31T08:56:15;17.60;;;10.10;;
24713;SDS011;12820;51.580;5.010;2022-07-31T09:01:18;19.10;;;11.07;;
24713;SDS011;12820;51.580;5.010;2022-07-31T09:06:20;13.45;;;8.77;;
24713;SDS011;12820;51.580;5.010;2022-07-31T09:11:23;13.90;;;8.00;;
24713;SDS011;12820;51.580;5.010;2022-07-31T09:16:44;12.13;;;6.50;;
24713;SDS011;12820;51.580;5.010;2022-07-31T09:21:54;12.02;;;6.40;;
24713;SDS011;12820;51.580;5.010;2022-07-31T09:46:16;16.38;;;6.05;;
24713;SDS011;12820;51.580;5.010;2022-07-31T09:51:18;9.65;;;6.25;;
24713;SDS011;12820;51.580;5.010;2022-07-31T09:56:33;9.35;;;5.68;;
24713;SDS011;12820;51.580;5.010;2022-07-31T10:01:37;8.20;;;5.72;;
24713;SDS011;12820;51.580;5.010;2022-07-31T10:06:42;10.50;;;6.68;;
24713;SDS011;12820;51.580;5.010;2022-07-31T10:11:48;12.70;;;5.40;;
24713;SDS011;12820;51.580;5.010;2022-07-31T10:16:55;8.52;;;4.80;;
24713;SDS011;12820;51.580;5.010;2022-07-31T10:22:18;9.63;;;4.57;;
24713;SDS011;12820;51.580;5.010;2022-07-31T10:27:24;7.43;;;4.25;;
24713;SDS011;12820;51.580;5.010;2022-07-31T10:32:32;8.18;;;4.05;;
24713;SDS011;12820;51.580;5.010;2022-07-31T10:38:03;6.43;;;3.30;;
24713;SDS011;12820;51.580;5.010;2022-07-31T10:43:28;8.63;;;4.05;;
24713;SDS011;12820;51.580;5.010;2022-07-31T10:48:49;5.35;;;3.33;;
24713;SDS011;12820;51.580;5.010;2022-07-31T10:54:22;6.95;;;4.20;;
24713;SDS011;12820;51.580;5.010;2022-07-31T10:59:42;8.75;;;4.80;;
24713;SDS011;12820;51.580;5.010;2022-07-31T11:05:18;6.38;;;4.10;;
24713;SDS011;12820;51.580;5.010;2022-07-31T11:10:50;7.03;;;4.25;;
24713;SDS011;12820;51.580;5.010;2022-07-31T11:16:20;6.50;;;4.25;;
24713;SDS011;12820;51.580;5.010;2022-07-31T11:21:36;8.57;;;4.80;;
24713;SDS011;12820;51.580;5.010;2022-07-31T11:26:41;7.05;;;4.82;;
24713;SDS011;12820;51.580;5.010;2022-07-31T11:31:50;8.00;;;4.60;;
24713;SDS011;12820;51.580;5.010;2022-07-31T11:36:52;9.45;;;4.50;;
24713;SDS011;12820;51.580;5.010;2022-07-31T11:41:54;7.70;;;5.15;;
24713;SDS011;12820;51.580;5.010;2022-07-31T11:46:57;7.78;;;5.03;;
24713;SDS011;12820;51.580;5.010;2022-07-31T11:52:01;8.93;;;5.13;;
24713;SDS011;12820;51.580;5.010;2022-07-31T11:57:05;9.77;;;5.43;;
24713;SDS011;12820;51.580;5.010;2022-07-31T12:02:11;8.63;;;5.82;;
24713;SDS011;12820;51.580;5.010;2022-07-31T12:07:15;9.57;;;5.20;;
24713;SDS011;12820;51.580;5.010;2022-07-31T12:12:21;7.78;;;5.20;;
24713;SDS011;12820;51.580;5.010;2022-07-31T12:17:28;7.45;;;4.68;;
24713;SDS011;12820;51.580;5.010;2022-07-31T12:22:30;9.25;;;5.50;;
24713;SDS011;12820;51.580;5.010;2022-07-31T12:27:32;7.38;;;3.58;;
24713;SDS011;12820;51.580;5.010;2022-07-31T12:32:34;5.55;;;3.13;;
24713;SDS011;12820;51.580;5.010;2022-07-31T12:37:43;6.80;;;2.88;;
24713;SDS011;12820;51.580;5.010;2022-07-31T12:42:50;9.68;;;4.90;;
24713;SDS011;12820;51.580;5.010;2022-07-31T12:47:53;7.55;;;3.60;;
24713;SDS011;12820;51.580;5.010;2022-07-31T12:52:57;7.10;;;3.40;;
24713;SDS011;12820;51.580;5.010;2022-07-31T12:58:04;6.18;;;3.00;;
24713;SDS011;12820;51.580;5.010;2022-07-31T13:03:06;6.30;;;2.78;;
24713;SDS011;12820;51.580;5.010;2022-07-31T13:08:08;6.07;;;2.72;;
24713;SDS011;12820;51.580;5.010;2022-07-31T13:13:10;4.13;;;2.40;;
24713;SDS011;12820;51.580;5.010;2022-07-31T13:18:12;4.97;;;2.58;;
24713;SDS011;12820;51.580;5.010;2022-07-31T13:23:14;4.97;;;2.50;;
24713;SDS011;12820;51.580;5.010;2022-07-31T13:28:16;5.03;;;2.53;;
24713;SDS011;12820;51.580;5.010;2022-07-31T13:33:18;4.90;;;2.88;;
24713;SDS011;12820;51.580;5.010;2022-07-31T13:38:21;4.53;;;2.78;;
24713;SDS011;12820;51.580;5.010;2022-07-31T13:43:23;4.80;;;3.03;;
24713;SDS011;12820;51.580;5.010;2022-07-31T13:48:25;5.07;;;2.92;;
24713;SDS011;12820;51.580;5.010;2022-07-31T13:53:27;8.13;;;3.28;;
24713;SDS011;12820;51.580;5.010;2022-07-31T13:58:29;4.45;;;2.67;;
24713;SDS011;12820;51.580;5.010;2022-07-31T14:03:32;6.60;;;3.17;;
24713;SDS011;12820;51.580;5.010;2022-07-31T14:08:40;4.43;;;2.63;;
24713;SDS011;12820;51.580;5.010;2022-07-31T14:13:51;5.90;;;3.00;;
24713;SDS011;12820;51.580;5.010;2022-07-31T14:18:53;7.30;;;3.30;;
24713;SDS011;12820;51.580;5.010;2022-07-31T14:23:55;9.18;;;3.65;;
24713;SDS011;12820;51.580;5.010;2022-07-31T14:28:58;4.75;;;3.00;;
24713;SDS011;12820;51.580;5.010;2022-07-31T14:34:07;7.25;;;3.47;;
24713;SDS011;12820;51.580;5.010;2022-07-31T14:39:09;6.70;;;3.65;;
24713;SDS011;12820;51.580;5.010;2022-07-31T14:44:11;8.18;;;3.60;;
24713;SDS011;12820;51.580;5.010;2022-07-31T14:49:21;7.13;;;3.78;;
24713;SDS011;12820;51.580;5.010;2022-07-31T14:54:23;10.73;;;4.57;;
24713;SDS011;12820;51.580;5.010;2022-07-31T14:59:29;7.22;;;3.97;;
24713;SDS011;12820;51.580;5.010;2022-07-31T15:04:33;7.40;;;3.35;;
24713;SDS011;12820;51.580;5.010;2022-07-31T15:09:35;6.90;;;3.03;;
24713;SDS011;12820;51.580;5.010;2022-07-31T15:14:37;5.43;;;2.80;;
24713;SDS011;12820;51.580;5.010;2022-07-31T15:19:39;5.50;;;2.35;;
24713;SDS011;12820;51.580;5.010;2022-07-31T15:24:41;6.13;;;2.50;;
24713;SDS011;12820;51.580;5.010;2022-07-31T15:29:50;4.97;;;2.40;;
24713;SDS011;12820;51.580;5.010;2022-07-31T15:35:10;5.30;;;2.47;;
24713;SDS011;12820;51.580;5.010;2022-07-31T15:40:13;4.65;;;2.25;;
24713;SDS011;12820;51.580;5.010;2022-07-31T15:45:18;4.88;;;2.42;;
24713;SDS011;12820;51.580;5.010;2022-07-31T15:50:21;5.90;;;2.55;;
24713;SDS011;12820;51.580;5.010;2022-07-31T15:55:23;5.22;;;2.50;;
24713;SDS011;12820;51.580;5.010;2022-07-31T16:00:26;5.88;;;2.88;;
24713;SDS011;12820;51.580;5.010;2022-07-31T16:05:29;6.57;;;2.50;;
24713;SDS011;12820;51.580;5.010;2022-07-31T16:10:39;7.20;;;3.07;;
24713;SDS011;12820;51.580;5.010;2022-07-31T16:15:41;6.05;;;3.08;;
24713;SDS011;12820;51.580;5.010;2022-07-31T16:20:43;7.38;;;3.30;;
24713;SDS011;12820;51.580;5.010;2022-07-31T16:25:45;7.75;;;3.60;;
24713;SDS011;12820;51.580;5.010;2022-07-31T16:30:48;9.98;;;3.08;;
24713;SDS011;12820;51.580;5.010;2022-07-31T16:35:51;7.00;;;2.92;;
24713;SDS011;12820;51.580;5.010;2022-07-31T16:40:55;8.13;;;2.92;;
24713;SDS011;12820;51.580;5.010;2022-07-31T16:45:57;7.47;;;2.60;;
24713;SDS011;12820;51.580;5.010;2022-07-31T16:50:59;6.85;;;3.10;;
24713;SDS011;12820;51.580;5.010;2022-07-31T16:56:02;6.78;;;2.65;;
24713;SDS011;12820;51.580;5.010;2022-07-31T17:01:04;7.70;;;2.70;;
24713;SDS011;12820;51.580;5.010;2022-07-31T17:06:26;6.22;;;2.65;;
24713;SDS011;12820;51.580;5.010;2022-07-31T17:11:38;7.22;;;2.97;;
24713;SDS011;12820;51.580;5.010;2022-07-31T17:16:41;8.88;;;2.88;;
24713;SDS011;12820;51.580;5.010;2022-07-31T17:21:51;8.40;;;3.03;;
24713;SDS011;12820;51.580;5.010;2022-07-31T17:26:53;8.52;;;3.30;;
24713;SDS011;12820;51.580;5.010;2022-07-31T17:31:56;11.60;;;3.55;;
24713;SDS011;12820;51.580;5.010;2022-07-31T17:36:58;9.77;;;3.38;;
24713;SDS011;12820;51.580;5.010;2022-07-31T17:42:02;9.52;;;3.40;;
24713;SDS011;12820;51.580;5.010;2022-07-31T17:47:05;8.40;;;3.65;;
24713;SDS011;12820;51.580;5.010;2022-07-31T17:52:09;10.07;;;3.33;;
24713;SDS011;12820;51.580;5.010;2022-07-31T17:57:11;10.88;;;3.60;;
24713;SDS011;12820;51.580;5.010;2022-07-31T18:02:13;13.10;;;3.80;;
24713;SDS011;12820;51.580;5.010;2022-07-31T18:07:16;10.77;;;3.78;;
24713;SDS011;12820;51.580;5.010;2022-07-31T18:12:20;8.95;;;3.97;;
24713;SDS011;12820;51.580;5.010;2022-07-31T18:17:25;8.85;;;3.40;;
24713;SDS011;12820;51.580;5.010;2022-07-31T18:22:31;8.25;;;4.15;;
24713;SDS011;12820;51.580;5.010;2022-07-31T18:27:52;8.50;;;3.70;;
24713;SDS011;12820;51.580;5.010;2022-07-31T18:32:57;12.43;;;3.83;;
24713;SDS011;12820;51.580;5.010;2022-07-31T18:38:04;8.68;;;3.60;;
24713;SDS011;12820;51.580;5.010;2022-07-31T18:43:06;8.32;;;3.92;;
24713;SDS011;12820;51.580;5.010;2022-07-31T18:48:08;8.68;;;4.60;;
24713;SDS011;12820;51.580;5.010;2022-07-31T18:53:10;9.35;;;3.65;;
24713;SDS011;12820;51.580;5.010;2022-07-31T18:58:14;8.27;;;3.50;;
24713;SDS011;12820;51.580;5.010;2022-07-31T19:03:17;8.77;;;4.28;;
24713;SDS011;12820;51.580;5.010;2022-07-31T19:08:20;10.57;;;3.67;;
24713;SDS011;12820;51.580;5.010;2022-07-31T19:13:29;10.52;;;3.53;;
24713;SDS011;12820;51.580;5.010;2022-07-31T19:18:31;8.10;;;3.47;;
24713;SDS011;12820;51.580;5.010;2022-07-31T19:23:33;8.45;;;3.90;;
24713;SDS011;12820;51.580;5.010;2022-07-31T19:28:39;10.27;;;3.20;;
24713;SDS011;12820;51.580;5.010;2022-07-31T19:33:46;9.82;;;3.92;;
24713;SDS011;12820;51.580;5.010;2022-07-31T19:38:51;7.72;;;3.67;;
24713;SDS011;12820;51.580;5.010;2022-07-31T19:43:53;7.20;;;3.35;;
24713;SDS011;12820;51.580;5.010;2022-07-31T19:48:55;8.85;;;3.60;;
24713;SDS011;12820;51.580;5.010;2022-07-31T19:53:57;7.70;;;4.15;;
24713;SDS011;12820;51.580;5.010;2022-07-31T19:59:02;7.40;;;3.58;;
24713;SDS011;12820;51.580;5.010;2022-07-31T20:04:04;8.05;;;4.03;;
24713;SDS011;12820;51.580;5.010;2022-07-31T20:09:09;7.20;;;4.03;;
24713;SDS011;12820;51.580;5.010;2022-07-31T20:14:14;7.90;;;4.22;;
24713;SDS011;12820;51.580;5.010;2022-07-31T20:19:16;6.65;;;3.75;;
24713;SDS011;12820;51.580;5.010;2022-07-31T20:24:18;8.48;;;4.15;;
24713;SDS011;12820;51.580;5.010;2022-07-31T20:29:21;7.85;;;4.30;;
24713;SDS011;12820;51.580;5.010;2022-07-31T20:34:23;8.02;;;3.95;;
24713;SDS011;12820;51.580;5.010;2022-07-31T20:39:26;7.97;;;4.30;;
24713;SDS011;12820;51.580;5.010;2022-07-31T20:44:37;8.57;;;4.53;;
24713;SDS011;12820;51.580;5.010;2022-07-31T20:49:41;8.75;;;4.50;;
24713;SDS011;12820;51.580;5.010;2022-07-31T20:54:43;9.70;;;4.80;;
24713;SDS011;12820;51.580;5.010;2022-07-31T20:59:45;12.02;;;5.00;;
24713;SDS011;12820;51.580;5.010;2022-07-31T21:04:47;8.55;;;4.40;;
24713;SDS011;12820;51.580;5.010;2022-07-31T21:09:49;10.65;;;4.78;;
24713;SDS011;12820;51.580;5.010;2022-07-31T21:14:51;8.38;;;4.63;;
24713;SDS011;12820;51.580;5.010;2022-07-31T21:19:53;8.50;;;4.60;;
24713;SDS011;12820;51.580;5.010;2022-07-31T21:24:56;9.48;;;5.00;;
24713;SDS011;12820;51.580;5.010;2022-07-31T21:29:58;11.55;;;4.72;;
24713;SDS011;12820;51.580;5.010;2022-07-31T21:35:00;10.23;;;4.57;;
24713;SDS011;12820;51.580;5.010;2022-07-31T21:40:03;14.13;;;4.82;;
24713;SDS011;12820;51.580;5.010;2022-07-31T21:45:06;9.15;;;4.68;;
24713;SDS011;12820;51.580;5.010;2022-07-31T21:50:08;8.60;;;4.57;;
24713;SDS011;12820;51.580;5.010;2022-07-31T21:55:11;11.50;;;5.28;;
24713;SDS011;12820;51.580;5.010;2022-07-31T22:00:13;10.48;;;5.55;;
24713;SDS011;12820;51.580;5.010;2022-07-31T22:05:15;9.70;;;5.28;;
24713;SDS011;12820;51.580;5.010;2022-07-31T22:10:50;12.68;;;6.25;;
24713;SDS011;12820;51.580;5.010;2022-07-31T22:15:57;9.90;;;5.10;;
24713;SDS011;12820;51.580;5.010;2022-07-31T22:21:05;10.07;;;5.45;;
24713;SDS011;12820;51.580;5.010;2022-07-31T22:26:08;9.02;;;5.53;;
24713;SDS011;12820;51.580;5.010;2022-07-31T22:31:11;11.43;;;5.95;;
24713;SDS011;12820;51.580;5.010;2022-07-31T22:36:13;12.30;;;6.70;;
24713;SDS011;12820;51.580;5.010;2022-07-31T22:41:15;13.02;;;5.95;;
24713;SDS011;12820;51.580;5.010;2022-07-31T22:46:17;15.48;;;6.65;;
24713;SDS011;12820;51.580;5.010;2022-07-31T22:51:20;10.75;;;5.70;;
24713;SDS011;12820;51.580;5.010;2022-07-31T22:56:22;10.75;;;5.78;;
24713;SDS011;12820;51.580;5.010;2022-07-31T23:01:24;12.43;;;6.10;;
24713;SDS011;12820;51.580;5.010;2022-07-31T23:06:26;17.23;;;6.53;;
24713;SDS011;12820;51.580;5.010;2022-07-31T23:11:33;11.07;;;6.47;;
24713;SDS011;12820;51.580;5.010;2022-07-31T23:16:35;14.90;;;6.50;;
24713;SDS011;12820;51.580;5.010;2022-07-31T23:21:37;12.50;;;6.38;;
24713;SDS011;12820;51.580;5.010;2022-07-31T23:26:39;13.45;;;6.25;;
24713;SDS011;12820;51.580;5.010;2022-07-31T23:31:41;13.55;;;7.30;;
24713;SDS011;12820;51.580;5.010;2022-07-31T23:36:43;17.00;;;7.22;;
24713;SDS011;12820;51.580;5.010;2022-07-31T23:41:45;14.07;;;6.47;;
24713;SDS011;12820;51.580;5.010;2022-07-31T23:47:07;11.15;;;6.25;;
24713;SDS011;12820;51.580;5.010;2022-07-31T23:52:09;17.13;;;7.22;;
24713;SDS011;12820;51.580;5.010;2022-07-31T23:57:12;16.88;;;7.28;;
